METAR Data
IDs: Format: Raw Decoded Include TAF

Data at: 2046 UTC 14 Dec 2018

KHYI 141956Z 32020G27KT 10SM OVC031 11/03 A3006 RMK AO2 PK WND 32028/1914 SLP178 T01060033
KHYI 141856Z 33022G31KT 10SM OVC031 09/03 A3007 RMK AO2 PK WND 33031/1852 SLP178 T00940028
KHYI 141756Z 33019G30KT 10SM OVC025 09/03 A3009 RMK AO2 PK WND 31030/1754 SLP186 T00890028 10089 20061 50009
KHYI 141656Z 32020G26KT 10SM OVC025 08/03 A3010 RMK AO2 PK WND 32028/1626 SLP189 T00830028
KHYI 141556Z 32017G23KT 10SM OVC023 08/02 A3006 RMK AO2 SLP178 T00780022
KHYI 141456Z 32017G21KT 10SM OVC023 07/02 A3006 RMK AO2 SLP177 T00670022 51021
KHYI 141356Z 33018G24KT 10SM OVC023 06/02 A3004 RMK AO2 PK WND 32027/1346 SLP171 T00610017
KHYI 141256Z 33018G28KT 10SM OVC025 06/01 A3002 RMK AO2 PK WND 33033/1223 SLP163 T00610011
KHYI 141156Z 32016G31KT 10SM OVC025 06/01 A3000 RMK AO2 PK WND 32035/1057 SLP155 T00610011 10083 20061 53020
KHYI 141056Z 32025G28KT 10SM OVC027 07/01 A2997 RMK AO2 PK WND 31034/1009 SLP145 T00670011
KHYI 140956Z 31023G35KT 10SM OVC027 07/02 A2996 RMK AO2 PK WND 33035/0951 SLP139 T00720017
KHYI 140856Z 32020G29KT 10SM OVC025 07/02 A2994 RMK AO2 PK WND 31030/0802 SLP133 T00720022 50008
KHYI 140756Z 30016G26KT 10SM OVC025 07/02 A2995 RMK AO2 PK WND 32030/0704 SLP135 T00720022
KHYI 140656Z 31017G29KT 10SM OVC029 08/02 A2993 RMK AO2 PK WND 31032/0639 SLP130 T00780022
KHYI 140642Z 31023G32KT 10SM OVC029 08/02 A2992 RMK AO2 PK WND 31032/0639
KHYI 140556Z 31021G30KT 10SM OVC031 08/02 A2991 RMK AO2 PK WND 31032/0501 SLP125 60000 T00830022 10106 20083 402220083 50001
KHYI 140456Z 31020G28KT 10SM OVC031 08/02 A2992 RMK AO2 PK WND 31030/0418 SLP127 T00830022
KHYI 140356Z 30015G28KT 10SM OVC033 08/02 A2992 RMK AO2 PK WND 31030/0307 SLP125 T00830022
KHYI 140256Z 30019G25KT 10SM BKN033 OVC055 08/02 A2991 RMK AO2 PK WND 30035/0214 SLP124 60000 T00830022 51013
KHYI 140156Z 31022G29KT 10SM OVC035 09/02 A2990 RMK AO2 PK WND 30033/0112 SLP121 T00890022
KHYI 140056Z 30014G22KT 10SM BKN045 09/02 A2990 RMK AO2 RAB25E45 SLP120 P0000 T00940022
KHYI 140012Z COR 290/12KT 10SM CLR 10/02 A2988
KHYI 132256Z 30019G30KT 10SM CLR 13/03 A2983 RMK AO2 PK WND 31037/2230 SLP095 T01330033
KHYI 132156Z 28016G25KT 10SM CLR 19/M01 A2977 RMK AO2 PK WND 27032/2136 SLP073 T01891011
KHYI 132056Z 28020G27KT 10SM CLR 20/M02 A2976 RMK AO2 PK WND 27030/2020 SLP070 T02001017 51001
KHYI 131956Z 29017G26KT 10SM CLR 21/01 A2976 RMK AO2 PK WND 29027/1936 SLP069 T02110006
KHYI 131901Z 28015G22KT 10SM CLR 21/04 A2976 RMK AO2
KHYI 131856Z 29017G26KT 10SM CLR 21/04 A2976 RMK AO2 PK WND 30031/1830 SLP070 T02110039
KHYI 131855Z COR 280/15G22KT 10SM CLR 21/04 A2976
KHYI 131756Z 28017G22KT 10SM CLR 22/08 A2975 RMK AO2 PK WND 27026/1739 SLP069 T02220078 10222 20128 58005
KHYI 131656Z 27014KT 10SM CLR 21/11 A2976 RMK AO2 SLP073 T02110111
KHYI 131556Z 23008KT 10SM CLR 18/14 A2977 RMK AO2 SLP075 T01780139
KHYI 131456Z 22008KT 7SM CLR 15/14 A2977 RMK AO2 SLP076 T01500139 53012
KHYI 131437Z 23008KT 5SM BR FEW005 14/14 A2976 RMK AO2
KHYI 131356Z 22008KT 4SM BR CLR 14/13 A2975 RMK AO2 SLP067 T01390133
KHYI 131354Z 23008KT 4SM BR CLR 13/13 A2975 RMK AO2
KHYI 131308Z 23006KT 1 1/2SM BR CLR 13/13 A2974 RMK AO2
KHYI 131256Z 22009KT 3SM BR CLR 14/13 A2974 RMK AO2 SLP064 T01390133
KHYI 131211Z AUTO 21008KT 4SM BR FEW003 14/14 A2973 RMK AO2
KHYI 131156Z AUTO 23007KT 4SM BR BKN003 14/14 A2972 RMK AO2 SLP060 T01440144 10167 20144 55002
KHYI 131146Z AUTO 24007KT 4SM BR BKN003 15/14 A2972 RMK AO2
KHYI 131135Z AUTO 21006KT 4SM BR SCT003 15/14 A2971 RMK AO2
KHYI 131111Z AUTO 25008KT 4SM BR OVC003 16/15 A2971 RMK AO2
KHYI 131056Z AUTO 24008KT 2 1/2SM BR OVC003 16/15 A2972 RMK AO2 SLP056 T01560150
KHYI 131054Z AUTO 23008KT 2 1/2SM BR OVC003 16/16 A2972 RMK AO2
KHYI 131039Z AUTO 25009KT 1 1/4SM BR OVC003 16/16 A2973 RMK AO2
KHYI 131018Z AUTO 23009KT 3/4SM BR OVC003 16/16 A2972 RMK AO2
KHYI 131008Z AUTO 23007KT 1SM BR OVC003 16/16 A2972 RMK AO2
KHYI 130956Z AUTO 23008KT 2 1/2SM BR OVC003 16/16 A2973 RMK AO2 SLP061 T01610161
KHYI 130931Z AUTO 22005KT 4SM BR OVC003 16/16 A2974 RMK AO2
KHYI 130906Z AUTO 19007KT 5SM BR BKN005 OVC020 17/16 A2975 RMK AO2
KHYI 130856Z AUTO 20006KT 6SM BR SCT005 BKN020 17/16 A2975 RMK AO2 SLP070 T01670161 58027